Terminal Aerodrome Forecast
Issued by NWS

Home | Current Version | Previous Version | Text Only | Print | Product List | Glossary On
Versions: 1 2 3 4 5 6 7 8 9 10 11 12 13 14 15 16 17 18 19 20 21 22 23
000
FTUS45 KRIW 290500
TAFPNA
TAF
KPNA 290540Z 2906/3006 22008G15KT P6SM SCT100 WS018/25035KT
     FM291100 VRB06KT P6SM BKN060 WS018/25035KT
     FM291400 VRB06KT 3SM -SN SCT013 OVC020 WS018/26035KT
     FM292000 26011KT 5SM -SN SCT020 OVC030
      AMD LTD TO CLD VIS AND WIND=

USA.gov is the U.S. government's official web portal to all federal, state and local government web resources and services.